sensor_id;sensor_type;location;lat;lon;timestamp;pressure;altitude;pressure_sealevel;temperature;humidity
9460;BME280;4768;42.664;23.240;2023-05-20T00:01:11;-9714.00;;;10.64;100.00
9460;BME280;4768;42.664;23.240;2023-05-20T00:03:37;-9716.97;;;10.75;100.00
9460;BME280;4768;42.664;23.240;2023-05-20T00:06:04;-9716.28;;;10.72;100.00
9460;BME280;4768;42.664;23.240;2023-05-20T00:08:31;-9726.22;;;11.07;100.00
9460;BME280;4768;42.664;23.240;2023-05-20T00:10:58;-9732.31;;;11.28;100.00
9460;BME280;4768;42.664;23.240;2023-05-20T00:13:25;-9733.44;;;11.32;100.00
9460;BME280;4768;42.664;23.240;2023-05-20T00:15:53;-9716.97;;;10.75;100.00
9460;BME280;4768;42.664;23.240;2023-05-20T00:18:19;-9717.28;;;10.76;100.00
9460;BME280;4768;42.664;23.240;2023-05-20T00:20:46;-9711.72;;;10.57;100.00
9460;BME280;4768;42.664;23.240;2023-05-20T00:23:13;-9721.25;;;10.90;100.00
9460;BME280;4768;42.664;23.240;2023-05-20T00:25:40;-9728.91;;;11.16;100.00
9460;BME280;4768;42.664;23.240;2023-05-20T00:28:06;-9722.09;;;10.93;100.00
9460;BME280;4768;42.664;23.240;2023-05-20T00:30:33;-9710.31;;;10.52;100.00
9460;BME280;4768;42.664;23.240;2023-05-20T00:33:01;-9707.34;;;10.41;100.00
9460;BME280;4768;42.664;23.240;2023-05-20T00:35:28;-9708.91;;;10.47;100.00
9460;BME280;4768;42.664;23.240;2023-05-20T00:37:55;-9712.16;;;10.58;100.00
9460;BME280;4768;42.664;23.240;2023-05-20T00:40:21;-9713.28;;;10.62;100.00
9460;BME280;4768;42.664;23.240;2023-05-20T00:42:49;-9712.88;;;10.60;100.00
9460;BME280;4768;42.664;23.240;2023-05-20T00:45:16;-9711.88;;;10.57;100.00
9460;BME280;4768;42.664;23.240;2023-05-20T00:47:43;-9714.28;;;10.65;100.00
9460;BME280;4768;42.664;23.240;2023-05-20T00:50:11;-9711.72;;;10.57;100.00
9460;BME280;4768;42.664;23.240;2023-05-20T00:52:38;-9709.47;;;10.49;100.00
9460;BME280;4768;42.664;23.240;2023-05-20T00:55:06;-9706.75;;;10.39;100.00
9460;BME280;4768;42.664;23.240;2023-05-20T00:57:33;-9706.06;;;10.37;100.00
9460;BME280;4768;42.664;23.240;2023-05-20T01:00:00;-9706.19;;;10.37;100.00
9460;BME280;4768;42.664;23.240;2023-05-20T01:02:27;-9706.91;;;10.40;100.00
9460;BME280;4768;42.664;23.240;2023-05-20T01:04:54;-9704.78;;;10.32;100.00
9460;BME280;4768;42.664;23.240;2023-05-20T01:07:22;-9703.78;;;10.29;100.00
9460;BME280;4768;42.664;23.240;2023-05-20T01:09:49;-9724.38;;;11.01;100.00
9460;BME280;4768;42.664;23.240;2023-05-20T01:12:22;-9719.97;;;10.85;100.00
9460;BME280;4768;42.664;23.240;2023-05-20T01:14:55;-9716.69;;;10.74;100.00
9460;BME280;4768;42.664;23.240;2023-05-20T01:17:26;-9718.84;;;10.81;100.00
9460;BME280;4768;42.664;23.240;2023-05-20T01:19:58;-9714.72;;;10.67;100.00
9460;BME280;4768;42.664;23.240;2023-05-20T01:22:27;-9712.88;;;10.60;100.00
9460;BME280;4768;42.664;23.240;2023-05-20T01:24:54;-9706.47;;;10.38;100.00
9460;BME280;4768;42.664;23.240;2023-05-20T01:27:24;-9704.22;;;10.30;100.00
9460;BME280;4768;42.664;23.240;2023-05-20T01:29:51;-9700.66;;;10.18;100.00
9460;BME280;4768;42.664;23.240;2023-05-20T01:32:20;-9696.56;;;10.04;100.00
9460;BME280;4768;42.664;23.240;2023-05-20T01:34:50;-9696.84;;;10.05;100.00
9460;BME280;4768;42.664;23.240;2023-05-20T01:37:18;-9702.09;;;10.23;100.00
9460;BME280;4768;42.664;23.240;2023-05-20T01:39:49;-9701.22;;;10.20;100.00
9460;BME280;4768;42.664;23.240;2023-05-20T01:42:16;-9699.97;;;10.15;100.00
9460;BME280;4768;42.664;23.240;2023-05-20T01:44:43;-9703.66;;;10.28;100.00
9460;BME280;4768;42.664;23.240;2023-05-20T01:47:10;-9706.47;;;10.38;100.00
9460;BME280;4768;42.664;23.240;2023-05-20T01:49:36;-9707.63;;;10.42;100.00
9460;BME280;4768;42.664;23.240;2023-05-20T01:52:03;-9708.59;;;10.46;100.00
9460;BME280;4768;42.664;23.240;2023-05-20T01:54:30;-9708.47;;;10.45;100.00
9460;BME280;4768;42.664;23.240;2023-05-20T01:56:58;-9711.72;;;10.57;100.00
9460;BME280;4768;42.664;23.240;2023-05-20T01:59:25;-9710.75;;;10.53;100.00
9460;BME280;4768;42.664;23.240;2023-05-20T02:01:52;-9710.31;;;10.52;100.00
9460;BME280;4768;42.664;23.240;2023-05-20T02:04:19;-9706.75;;;10.39;100.00
9460;BME280;4768;42.664;23.240;2023-05-20T02:06:46;-9706.63;;;10.39;100.00
9460;BME280;4768;42.664;23.240;2023-05-20T02:09:13;-9703.50;;;10.28;100.00
9460;BME280;4768;42.664;23.240;2023-05-20T02:11:40;-9701.53;;;10.21;100.00
9460;BME280;4768;42.664;23.240;2023-05-20T02:14:08;-9699.38;;;10.13;100.00
9460;BME280;4768;42.664;23.240;2023-05-20T02:16:35;-9696.13;;;10.02;100.00
9460;BME280;4768;42.664;23.240;2023-05-20T02:19:01;-9696.84;;;10.05;100.00
9460;BME280;4768;42.664;23.240;2023-05-20T02:21:28;-9697.41;;;10.07;100.00
9460;BME280;4768;42.664;23.240;2023-05-20T02:23:55;-9699.97;;;10.15;100.00
9460;BME280;4768;42.664;23.240;2023-05-20T02:26:22;-9700.66;;;10.18;100.00
9460;BME280;4768;42.664;23.240;2023-05-20T02:28:49;-9698.97;;;10.12;100.00
9460;BME280;4768;42.664;23.240;2023-05-20T02:31:17;-9697.81;;;10.08;100.00
9460;BME280;4768;42.664;23.240;2023-05-20T02:33:44;-9697.13;;;10.06;100.00
9460;BME280;4768;42.664;23.240;2023-05-20T02:36:11;-9696.69;;;10.04;100.00
9460;BME280;4768;42.664;23.240;2023-05-20T02:38:38;-9693.84;;;9.94;100.00
9460;BME280;4768;42.664;23.240;2023-05-20T02:41:05;-9693.41;;;9.93;100.00
9460;BME280;4768;42.664;23.240;2023-05-20T02:43:32;-9695.00;;;9.98;100.00
9460;BME280;4768;42.664;23.240;2023-05-20T02:45:59;-9696.13;;;10.02;100.00
9460;BME280;4768;42.664;23.240;2023-05-20T02:48:27;-9695.28;;;9.99;100.00
9460;BME280;4768;42.664;23.240;2023-05-20T02:50:54;-9693.56;;;9.93;100.00
9460;BME280;4768;42.664;23.240;2023-05-20T02:53:21;-9689.72;;;9.80;100.00
9460;BME280;4768;42.664;23.240;2023-05-20T02:55:48;-9690.72;;;9.83;100.00
9460;BME280;4768;42.664;23.240;2023-05-20T02:58:15;-9691.28;;;9.85;100.00
9460;BME280;4768;42.664;23.240;2023-05-20T03:00:42;-9691.16;;;9.85;100.00
9460;BME280;4768;42.664;23.240;2023-05-20T03:03:09;-9687.75;;;9.73;100.00
9460;BME280;4768;42.664;23.240;2023-05-20T03:05:39;-9689.72;;;9.80;100.00
9460;BME280;4768;42.664;23.240;2023-05-20T03:08:08;-9690.31;;;9.82;100.00
9460;BME280;4768;42.664;23.240;2023-05-20T03:10:35;-9689.72;;;9.80;100.00
9460;BME280;4768;42.664;23.240;2023-05-20T03:13:03;-9686.34;;;9.68;100.00
9460;BME280;4768;42.664;23.240;2023-05-20T03:15:32;-9688.59;;;9.76;100.00
9460;BME280;4768;42.664;23.240;2023-05-20T03:17:59;-9689.31;;;9.78;100.00
9460;BME280;4768;42.664;23.240;2023-05-20T03:20:26;-9692.84;;;9.91;100.00
9460;BME280;4768;42.664;23.240;2023-05-20T03:22:55;-9694.69;;;9.97;100.00
9460;BME280;4768;42.664;23.240;2023-05-20T03:25:23;-9696.84;;;10.05;100.00
9460;BME280;4768;42.664;23.240;2023-05-20T03:27:50;-9701.53;;;10.21;100.00
9460;BME280;4768;42.664;23.240;2023-05-20T03:30:17;-9709.47;;;10.49;100.00
9460;BME280;4768;42.664;23.240;2023-05-20T03:32:43;-9719.69;;;10.84;100.00
9460;BME280;4768;42.664;23.240;2023-05-20T03:35:10;-9729.91;;;11.20;100.00
9460;BME280;4768;42.664;23.240;2023-05-20T03:37:37;-9736.72;;;11.44;100.00
9460;BME280;4768;42.664;23.240;2023-05-20T03:40:06;-9740.56;;;11.57;100.00
9460;BME280;4768;42.664;23.240;2023-05-20T03:42:34;-9735.16;;;11.38;100.00
9460;BME280;4768;42.664;23.240;2023-05-20T03:45:02;-9742.13;;;11.62;100.00
9460;BME280;4768;42.664;23.240;2023-05-20T03:47:28;-9737.00;;;11.45;100.00
9460;BME280;4768;42.664;23.240;2023-05-20T03:49:55;-9733.75;;;11.33;100.00
9460;BME280;4768;42.664;23.240;2023-05-20T03:52:22;-9735.16;;;11.38;100.00
9460;BME280;4768;42.664;23.240;2023-05-20T03:54:49;-9736.16;;;11.42;100.00
9460;BME280;4768;42.664;23.240;2023-05-20T03:57:17;-9742.56;;;11.64;100.00
9460;BME280;4768;42.664;23.240;2023-05-20T03:59:44;-9747.94;;;11.83;100.00
9460;BME280;4768;42.664;23.240;2023-05-20T04:02:10;-9751.06;;;11.94;100.00
9460;BME280;4768;42.664;23.240;2023-05-20T04:04:37;-9753.91;;;12.04;100.00
9460;BME280;4768;42.664;23.240;2023-05-20T04:07:07;-9758.19;;;12.18;100.00
9460;BME280;4768;42.664;23.240;2023-05-20T04:09:34;-9764.44;;;12.40;100.00
9460;BME280;4768;42.664;23.240;2023-05-20T04:12:00;-9767.69;;;12.52;100.00
9460;BME280;4768;42.664;23.240;2023-05-20T04:14:29;-9773.94;;;12.73;100.00
9460;BME280;4768;42.664;23.240;2023-05-20T04:16:55;-9781.06;;;12.98;100.00
9460;BME280;4768;42.664;23.240;2023-05-20T04:19:22;-9786.88;;;13.18;100.00
9460;BME280;4768;42.664;23.240;2023-05-20T04:21:52;-9785.47;;;13.13;100.00
9460;BME280;4768;42.664;23.240;2023-05-20T04:24:19;-9787.59;;;13.21;100.00
9460;BME280;4768;42.664;23.240;2023-05-20T04:26:49;-9791.00;;;13.33;100.00
9460;BME280;4768;42.664;23.240;2023-05-20T04:29:16;-9793.56;;;13.42;100.00
9460;BME280;4768;42.664;23.240;2023-05-20T04:31:45;-9787.88;;;13.22;100.00
9460;BME280;4768;42.664;23.240;2023-05-20T04:34:12;-9790.03;;;13.29;100.00
9460;BME280;4768;42.664;23.240;2023-05-20T04:36:38;-9792.16;;;13.37;100.00
9460;BME280;4768;42.664;23.240;2023-05-20T04:39:05;-9795.00;;;13.47;100.00
9460;BME280;4768;42.664;23.240;2023-05-20T04:41:33;-9805.81;;;13.84;100.00
9460;BME280;4768;42.664;23.240;2023-05-20T04:44:00;-9815.47;;;14.18;100.00
9460;BME280;4768;42.664;23.240;2023-05-20T04:46:28;-9824.31;;;14.49;100.00
9460;BME280;4768;42.664;23.240;2023-05-20T04:48:57;-9828.44;;;14.63;100.00
9460;BME280;4768;42.664;23.240;2023-05-20T04:51:23;-9837.53;;;14.95;100.00
9460;BME280;4768;42.664;23.240;2023-05-20T04:53:50;-9842.53;;;15.12;100.00
9460;BME280;4768;42.664;23.240;2023-05-20T04:56:17;-9837.41;;;14.94;100.00
9460;BME280;4768;42.664;23.240;2023-05-20T04:58:43;-9825.88;;;14.54;100.00
9460;BME280;4768;42.664;23.240;2023-05-20T05:01:10;-9829.72;;;14.67;100.00
9460;BME280;4768;42.664;23.240;2023-05-20T05:03:37;-9830.00;;;14.68;100.00
9460;BME280;4768;42.664;23.240;2023-05-20T05:06:05;-9831.84;;;14.75;100.00
9460;BME280;4768;42.664;23.240;2023-05-20T05:08:32;-9827.88;;;14.61;100.00
9460;BME280;4768;42.664;23.240;2023-05-20T05:10:58;-9829.84;;;14.68;100.00
9460;BME280;4768;42.664;23.240;2023-05-20T05:13:25;-9825.72;;;14.53;100.00
9460;BME280;4768;42.664;23.240;2023-05-20T05:16:01;-9830.28;;;14.69;100.00
9460;BME280;4768;42.664;23.240;2023-05-20T05:18:28;-9818.19;;;14.27;100.00
9460;BME280;4768;42.664;23.240;2023-05-20T05:20:59;-9821.31;;;14.38;100.00
9460;BME280;4768;42.664;23.240;2023-05-20T05:23:27;-9818.63;;;14.29;100.00
9460;BME280;4768;42.664;23.240;2023-05-20T05:25:54;-9825.72;;;14.53;100.00
9460;BME280;4768;42.664;23.240;2023-05-20T05:28:21;-9828.16;;;14.62;100.00
9460;BME280;4768;42.664;23.240;2023-05-20T05:30:48;-9829.84;;;14.68;100.00
9460;BME280;4768;42.664;23.240;2023-05-20T05:33:15;-9839.25;;;15.00;100.00
9460;BME280;4768;42.664;23.240;2023-05-20T05:35:42;-9833.97;;;14.82;100.00
9460;BME280;4768;42.664;23.240;2023-05-20T05:38:09;-9827.16;;;14.58;100.00
9460;BME280;4768;42.664;23.240;2023-05-20T05:40:37;-9837.13;;;14.93;100.00
9460;BME280;4768;42.664;23.240;2023-05-20T05:43:04;-9845.53;;;15.22;100.00
9460;BME280;4768;42.664;23.240;2023-05-20T05:45:30;-9843.53;;;15.15;100.00
9460;BME280;4768;42.664;23.240;2023-05-20T05:47:57;-9856.47;;;15.60;100.00
9460;BME280;4768;42.664;23.240;2023-05-20T05:50:24;-9857.75;;;15.65;100.00
9460;BME280;4768;42.664;23.240;2023-05-20T05:52:51;-9851.22;;;15.42;100.00
9460;BME280;4768;42.664;23.240;2023-05-20T05:55:17;-9849.22;;;15.35;100.00
9460;BME280;4768;42.664;23.240;2023-05-20T05:57:46;-9847.38;;;15.29;100.00
9460;BME280;4768;42.664;23.240;2023-05-20T06:00:13;-9846.22;;;15.25;100.00
9460;BME280;4768;42.664;23.240;2023-05-20T06:02:40;-9847.38;;;15.29;100.00
9460;BME280;4768;42.664;23.240;2023-05-20T06:05:08;-9844.81;;;15.20;100.00
9460;BME280;4768;42.664;23.240;2023-05-20T06:07:35;-9848.38;;;15.32;100.00
9460;BME280;4768;42.664;23.240;2023-05-20T06:10:01;-9850.34;;;15.39;100.00
9460;BME280;4768;42.664;23.240;2023-05-20T06:12:28;-9842.09;;;15.10;100.00
9460;BME280;4768;42.664;23.240;2023-05-20T06:14:56;-9851.34;;;15.43;100.00
9460;BME280;4768;42.664;23.240;2023-05-20T06:17:23;-9849.06;;;15.35;100.00
9460;BME280;4768;42.664;23.240;2023-05-20T06:19:50;-9854.34;;;15.53;100.00
9460;BME280;4768;42.664;23.240;2023-05-20T06:22:16;-9861.31;;;15.77;100.00
9460;BME280;4768;42.664;23.240;2023-05-20T06:24:44;-9862.75;;;15.82;100.00
9460;BME280;4768;42.664;23.240;2023-05-20T06:27:11;-9864.75;;;15.89;100.00
9460;BME280;4768;42.664;23.240;2023-05-20T06:29:38;-9869.31;;;16.05;100.00
9460;BME280;4768;42.664;23.240;2023-05-20T06:32:07;-9879.69;;;16.41;100.00
9460;BME280;4768;42.664;23.240;2023-05-20T06:34:33;-9882.69;;;16.51;100.00
9460;BME280;4768;42.664;23.240;2023-05-20T06:37:00;-9889.53;;;16.75;100.00
9460;BME280;4768;42.664;23.240;2023-05-20T06:39:27;-9883.84;;;16.55;100.00
9460;BME280;4768;42.664;23.240;2023-05-20T06:41:53;-9882.84;;;16.52;100.00
9460;BME280;4768;42.664;23.240;2023-05-20T06:44:20;-9888.25;;;16.71;100.00
9460;BME280;4768;42.664;23.240;2023-05-20T06:46:47;-9905.50;;;17.31;100.00
9460;BME280;4768;42.664;23.240;2023-05-20T06:49:15;-9905.06;;;17.29;100.00
9460;BME280;4768;42.664;23.240;2023-05-20T06:51:41;-9910.22;;;17.47;100.00
9460;BME280;4768;42.664;23.240;2023-05-20T06:54:09;-9911.34;;;17.51;100.00
9460;BME280;4768;42.664;23.240;2023-05-20T06:56:36;-9912.78;;;17.56;100.00
9460;BME280;4768;42.664;23.240;2023-05-20T06:59:02;-9913.91;;;17.60;100.00
9460;BME280;4768;42.664;23.240;2023-05-20T07:01:29;-9925.91;;;18.01;100.00
9460;BME280;4768;42.664;23.240;2023-05-20T07:03:56;-9928.03;;;18.09;100.00
9460;BME280;4768;42.664;23.240;2023-05-20T07:06:24;-9934.03;;;18.30;100.00
9460;BME280;4768;42.664;23.240;2023-05-20T07:08:51;-9938.75;;;18.46;100.00
9460;BME280;4768;42.664;23.240;2023-05-20T07:11:17;-9950.28;;;18.86;100.00
9460;BME280;4768;42.664;23.240;2023-05-20T07:13:45;-9944.44;;;18.66;100.00
9460;BME280;4768;42.664;23.240;2023-05-20T07:16:12;-9941.03;;;18.54;100.00
9460;BME280;4768;42.664;23.240;2023-05-20T07:18:39;-9942.88;;;18.60;100.00
9460;BME280;4768;42.664;23.240;2023-05-20T07:21:05;-9937.75;;;18.42;100.00
9460;BME280;4768;42.664;23.240;2023-05-20T07:23:34;7742.44;;;18.39;100.00
9460;BME280;4768;42.664;23.240;2023-05-20T07:26:00;22027.34;;;18.60;100.00
9460;BME280;4768;42.664;23.240;2023-05-20T07:28:27;40589.94;;;18.70;100.00
9460;BME280;4768;42.664;23.240;2023-05-20T07:30:54;50116.66;;;19.16;100.00
9460;BME280;4768;42.664;23.240;2023-05-20T07:33:22;129240.34;;;19.06;100.00
9460;BME280;4768;42.664;23.240;2023-05-20T07:35:49;171969.41;;;18.82;100.00
9460;BME280;4768;42.664;23.240;2023-05-20T07:38:16;172064.59;;;19.17;100.00
9460;BME280;4768;42.664;23.240;2023-05-20T07:40:44;172040.47;;;19.08;100.00
9460;BME280;4768;42.664;23.240;2023-05-20T07:43:11;172126.19;;;19.39;100.00
9460;BME280;4768;42.664;23.240;2023-05-20T07:45:37;172084.69;;;19.24;100.00
9460;BME280;4768;42.664;23.240;2023-05-20T07:48:04;172104.78;;;19.32;100.00
9460;BME280;4768;42.664;23.240;2023-05-20T07:50:33;172028.41;;;19.03;100.00
9460;BME280;4768;42.664;23.240;2023-05-20T07:53:00;172069.94;;;19.19;100.00
9460;BME280;4768;42.664;23.240;2023-05-20T07:55:27;172091.34;;;19.27;100.00
9460;BME280;4768;42.664;23.240;2023-05-20T07:57:55;172084.69;;;19.24;100.00
9460;BME280;4768;42.664;23.240;2023-05-20T08:00:21;172118.16;;;19.37;100.00
9460;BME280;4768;42.664;23.240;2023-05-20T08:02:48;172191.91;;;19.64;100.00
9460;BME280;4768;42.664;23.240;2023-05-20T08:05:15;172210.63;;;19.71;100.00
9460;BME280;4768;42.664;23.240;2023-05-20T08:07:42;172252.19;;;19.86;100.00
9460;BME280;4768;42.664;23.240;2023-05-20T08:10:09;172308.53;;;20.07;100.00
9460;BME280;4768;42.664;23.240;2023-05-20T08:12:36;172374.22;;;20.31;100.00
9460;BME280;4768;42.664;23.240;2023-05-20T08:15:05;172228.09;;;19.77;100.00
9460;BME280;4768;42.664;23.240;2023-05-20T08:17:32;172094.03;;;19.28;100.00
9460;BME280;4768;42.664;23.240;2023-05-20T08:19:59;172094.03;;;19.28;100.00
9460;BME280;4768;42.664;23.240;2023-05-20T08:22:26;172112.81;;;19.35;100.00
9460;BME280;4768;42.664;23.240;2023-05-20T08:24:53;172253.56;;;19.87;100.00
9460;BME280;4768;42.664;23.240;2023-05-20T08:27:19;172308.53;;;20.07;100.00
9460;BME280;4768;42.664;23.240;2023-05-20T08:29:46;172441.28;;;20.56;100.00
9460;BME280;4768;42.664;23.240;2023-05-20T08:32:14;172350.09;;;20.22;100.00
9460;BME280;4768;42.664;23.240;2023-05-20T08:34:41;172157.03;;;19.51;100.00
9460;BME280;4768;42.664;23.240;2023-05-20T08:37:08;172004.19;;;18.94;100.00
9460;BME280;4768;42.664;23.240;2023-05-20T08:39:34;172130.22;;;19.41;100.00
9460;BME280;4768;42.664;23.240;2023-05-20T08:42:01;172272.38;;;19.93;100.00
9460;BME280;4768;42.664;23.240;2023-05-20T08:44:31;172209.28;;;19.70;100.00
9460;BME280;4768;42.664;23.240;2023-05-20T08:46:58;172134.22;;;19.42;100.00
9460;BME280;4768;42.664;23.240;2023-05-20T08:49:27;172418.47;;;20.47;100.00
9460;BME280;4768;42.664;23.240;2023-05-20T08:51:54;172398.34;;;20.40;100.00
9460;BME280;4768;42.664;23.240;2023-05-20T08:54:21;172236.13;;;19.80;100.00
9460;BME280;4768;42.664;23.240;2023-05-20T08:56:50;172232.09;;;19.79;100.00
9460;BME280;4768;42.664;23.240;2023-05-20T08:59:20;172222.69;;;19.75;100.00
9460;BME280;4768;42.664;23.240;2023-05-20T09:01:47;172374.22;;;20.31;100.00
9460;BME280;4768;42.664;23.240;2023-05-20T09:04:14;172088.69;;;19.26;100.00
9460;BME280;4768;42.664;23.240;2023-05-20T09:06:43;172171.75;;;19.56;100.00
9460;BME280;4768;42.664;23.240;2023-05-20T09:09:11;172240.16;;;19.82;100.00
9460;BME280;4768;42.664;23.240;2023-05-20T09:11:38;172202.59;;;19.68;100.00
9460;BME280;4768;42.664;23.240;2023-05-20T09:14:05;172242.78;;;19.83;100.00
9460;BME280;4768;42.664;23.240;2023-05-20T09:16:32;172351.41;;;20.23;100.00
9460;BME280;4768;42.664;23.240;2023-05-20T09:18:59;172207.97;;;19.70;100.00
9460;BME280;4768;42.664;23.240;2023-05-20T09:21:26;172187.81;;;19.62;100.00
9460;BME280;4768;42.664;23.240;2023-05-20T09:23:54;171973.44;;;18.83;100.00
9460;BME280;4768;42.664;23.240;2023-05-20T09:26:26;172079.28;;;19.22;100.00
9460;BME280;4768;42.664;23.240;2023-05-20T09:28:54;172135.56;;;19.43;100.00
9460;BME280;4768;42.664;23.240;2023-05-20T09:31:25;172041.78;;;19.08;100.00
9460;BME280;4768;42.664;23.240;2023-05-20T09:33:51;172032.44;;;19.05;100.00
9460;BME280;4768;42.664;23.240;2023-05-20T09:36:19;172244.16;;;19.83;100.00
9460;BME280;4768;42.664;23.240;2023-05-20T09:38:51;172118.16;;;19.37;100.00
9460;BME280;4768;42.664;23.240;2023-05-20T09:41:22;172100.75;;;19.30;100.00
9460;BME280;4768;42.664;23.240;2023-05-20T09:43:51;172072.63;;;19.20;100.00
9460;BME280;4768;42.664;23.240;2023-05-20T09:46:19;172018.94;;;19.00;100.00
9460;BME280;4768;42.664;23.240;2023-05-20T09:48:46;172154.34;;;19.50;100.00
9460;BME280;4768;42.664;23.240;2023-05-20T09:51:14;172108.78;;;19.33;100.00
9460;BME280;4768;42.664;23.240;2023-05-20T09:53:41;172138.25;;;19.44;100.00
9460;BME280;4768;42.664;23.240;2023-05-20T09:56:08;172212.00;;;19.71;100.00
9460;BME280;4768;42.664;23.240;2023-05-20T09:58:37;172182.47;;;19.60;100.00
9460;BME280;4768;42.664;23.240;2023-05-20T10:01:05;172051.16;;;19.12;100.00
9460;BME280;4768;42.664;23.240;2023-05-20T10:03:32;172162.38;;;19.53;100.00
9460;BME280;4768;42.664;23.240;2023-05-20T10:06:27;172393.00;;;20.38;100.00
9460;BME280;4768;42.664;23.240;2023-05-20T10:09:10;172130.22;;;19.41;100.00
9460;BME280;4768;42.664;23.240;2023-05-20T10:11:44;172197.22;;;19.66;100.00
9460;BME280;4768;42.664;23.240;2023-05-20T10:14:28;172358.13;;;20.25;100.00
9460;BME280;4768;42.664;23.240;2023-05-20T10:17:03;172323.25;;;20.12;100.00
9460;BME280;4768;42.664;23.240;2023-05-20T10:19:34;172277.69;;;19.95;100.00
9460;BME280;4768;42.664;23.240;2023-05-20T10:22:03;172295.13;;;20.02;100.00
9460;BME280;4768;42.664;23.240;2023-05-20T10:24:31;172384.97;;;20.35;100.00
9460;BME280;4768;42.664;23.240;2023-05-20T10:27:00;172260.31;;;19.89;100.00
9460;BME280;4768;42.664;23.240;2023-05-20T10:29:29;172131.53;;;19.41;100.00
9460;BME280;4768;42.664;23.240;2023-05-20T10:32:07;172189.19;;;19.63;100.00
9460;BME280;4768;42.664;23.240;2023-05-20T10:34:44;172153.00;;;19.49;100.00
9460;BME280;4768;42.664;23.240;2023-05-20T10:37:22;172193.22;;;19.64;100.00
9460;BME280;4768;42.664;23.240;2023-05-20T10:39:49;172303.16;;;20.05;100.00
9460;BME280;4768;42.664;23.240;2023-05-20T10:42:26;172358.13;;;20.25;100.00
9460;BME280;4768;42.664;23.240;2023-05-20T10:44:55;172334.00;;;20.16;100.00
9460;BME280;4768;42.664;23.240;2023-05-20T10:47:22;172179.78;;;19.59;100.00
9460;BME280;4768;42.664;23.240;2023-05-20T10:49:48;172205.28;;;19.69;100.00
9460;BME280;4768;42.664;23.240;2023-05-20T10:52:16;172317.91;;;20.10;100.00
9460;BME280;4768;42.664;23.240;2023-05-20T10:54:44;172222.69;;;19.75;100.00
9460;BME280;4768;42.664;23.240;2023-05-20T10:57:11;172203.97;;;19.68;100.00
9460;BME280;4768;42.664;23.240;2023-05-20T10:59:38;172142.28;;;19.45;100.00
9460;BME280;4768;42.664;23.240;2023-05-20T11:02:07;172206.59;;;19.69;100.00
9460;BME280;4768;42.664;23.240;2023-05-20T11:04:37;172260.31;;;19.89;100.00
9460;BME280;4768;42.664;23.240;2023-05-20T11:07:04;172293.78;;;20.01;100.00
9460;BME280;4768;42.664;23.240;2023-05-20T11:09:31;172292.47;;;20.01;100.00
9460;BME280;4768;42.664;23.240;2023-05-20T11:11:58;172285.75;;;19.98;100.00
9460;BME280;4768;42.664;23.240;2023-05-20T11:14:27;172244.16;;;19.83;100.00
9460;BME280;4768;42.664;23.240;2023-05-20T11:16:55;172183.81;;;19.61;100.00
9460;BME280;4768;42.664;23.240;2023-05-20T11:19:23;172288.44;;;19.99;100.00
9460;BME280;4768;42.664;23.240;2023-05-20T11:21:50;172265.63;;;19.91;100.00
9460;BME280;4768;42.664;23.240;2023-05-20T11:24:22;172238.75;;;19.81;100.00
9460;BME280;4768;42.664;23.240;2023-05-20T11:26:50;172130.22;;;19.41;100.00
9460;BME280;4768;42.664;23.240;2023-05-20T11:29:17;172120.84;;;19.38;100.00
9460;BME280;4768;42.664;23.240;2023-05-20T11:31:44;172127.53;;;19.40;100.00
9460;BME280;4768;42.664;23.240;2023-05-20T11:34:11;172207.97;;;19.70;100.00
9460;BME280;4768;42.664;23.240;2023-05-20T11:36:41;172316.59;;;20.10;100.00
9460;BME280;4768;42.664;23.240;2023-05-20T11:39:09;172339.34;;;20.18;100.00
9460;BME280;4768;42.664;23.240;2023-05-20T11:41:36;172395.69;;;20.39;100.00
9460;BME280;4768;42.664;23.240;2023-05-20T11:44:03;172448.00;;;20.58;100.00
9460;BME280;4768;42.664;23.240;2023-05-20T11:46:30;172511.03;;;20.82;100.00
9460;BME280;4768;42.664;23.240;2023-05-20T11:48:57;172488.28;;;20.73;100.00
9460;BME280;4768;42.664;23.240;2023-05-20T11:51:25;172325.97;;;20.13;100.00
9460;BME280;4768;42.664;23.240;2023-05-20T11:53:58;172220.03;;;19.74;100.00
9460;BME280;4768;42.664;23.240;2023-05-20T11:56:27;172194.53;;;19.65;100.00
9460;BME280;4768;42.664;23.240;2023-05-20T11:58:56;172234.75;;;19.80;100.00
9460;BME280;4768;42.664;23.240;2023-05-20T12:01:23;172283.03;;;19.97;100.00
9460;BME280;4768;42.664;23.240;2023-05-20T12:03:49;172366.16;;;20.28;100.00
9460;BME280;4768;42.664;23.240;2023-05-20T12:06:16;172427.88;;;20.51;100.00
9460;BME280;4768;42.664;23.240;2023-05-20T12:08:43;172230.72;;;19.78;100.00
9460;BME280;4768;42.664;23.240;2023-05-20T12:11:12;172252.19;;;19.86;100.00
9460;BME280;4768;42.664;23.240;2023-05-20T12:13:38;172358.13;;;20.25;100.00
9460;BME280;4768;42.664;23.240;2023-05-20T12:16:05;172335.31;;;20.17;100.00
9460;BME280;4768;42.664;23.240;2023-05-20T12:18:32;172316.59;;;20.10;100.00
9460;BME280;4768;42.664;23.240;2023-05-20T12:20:59;172233.41;;;19.79;100.00
9460;BME280;4768;42.664;23.240;2023-05-20T12:23:26;172225.38;;;19.76;100.00
9460;BME280;4768;42.664;23.240;2023-05-20T12:25:55;172144.97;;;19.46;100.00
9460;BME280;4768;42.664;23.240;2023-05-20T12:28:23;172110.13;;;19.34;100.00
9460;BME280;4768;42.664;23.240;2023-05-20T12:30:49;172126.19;;;19.39;100.00
9460;BME280;4768;42.664;23.240;2023-05-20T12:33:16;172095.38;;;19.28;100.00
9460;BME280;4768;42.664;23.240;2023-05-20T12:35:45;172080.66;;;19.23;100.00
9460;BME280;4768;42.664;23.240;2023-05-20T12:38:11;172061.88;;;19.16;100.00
9460;BME280;4768;42.664;23.240;2023-05-20T12:40:38;171862.25;;;18.42;100.00
9460;BME280;4768;42.664;23.240;2023-05-20T12:43:05;171726.94;;;17.92;100.00
9460;BME280;4768;42.664;23.240;2023-05-20T12:45:33;171601.09;;;17.45;100.00
9460;BME280;4768;42.664;23.240;2023-05-20T12:48:00;171480.59;;;17.01;100.00
9460;BME280;4768;42.664;23.240;2023-05-20T12:50:27;171435.13;;;16.84;100.00
9460;BME280;4768;42.664;23.240;2023-05-20T12:52:53;171409.66;;;16.75;100.00
9460;BME280;4768;42.664;23.240;2023-05-20T12:55:20;147883.22;;;16.82;100.00
9460;BME280;4768;42.664;23.240;2023-05-20T12:57:47;164545.81;;;16.87;100.00
9460;BME280;4768;42.664;23.240;2023-05-20T13:00:14;171457.81;;;16.92;100.00